createdAt,value
2023-02-16T00:01:53.826Z,101350.28
2023-02-16T00:04:45.206Z,101355.53
2023-02-16T00:07:32.382Z,101343.31
2023-02-16T00:10:19.231Z,101351.16
2023-02-16T00:13:05.310Z,101351.16
2023-02-16T00:15:52.576Z,101344.13
2023-02-16T00:18:41.446Z,101344.22
2023-02-16T00:21:28.263Z,101341.53
2023-02-16T00:24:15.386Z,101336.28
2023-02-16T00:27:03.100Z,101324.97
2023-02-16T00:29:53.992Z,101339.69
2023-02-16T00:32:40.961Z,101332.69
2023-02-16T00:35:54.142Z,101323.06
2023-02-16T00:38:40.954Z,101323.97
2023-02-16T00:41:36.923Z,101316.09
2023-02-16T00:44:30.103Z,101326.53
2023-02-16T00:47:17.630Z,101297.06
2023-02-16T00:50:04.576Z,101323.06
2023-02-16T00:52:59.181Z,101318.66
2023-02-16T00:55:56.898Z,101315.16
2023-02-16T00:58:50.354Z,101318.66
2023-02-16T01:01:39.777Z,101294.25
2023-02-16T01:04:29.450Z,101279.50
2023-02-16T01:07:14.849Z,101302.84
2023-02-16T01:10:00.949Z,101303.72
2023-02-16T01:12:48.284Z,101305.47
2023-02-16T01:15:18.305Z,101297.66
2023-02-16T01:18:05.192Z,101288.88
2023-02-16T01:20:52.676Z,101285.34
2023-02-16T01:23:39.611Z,101292.38
2023-02-16T01:26:33.591Z,101280.16
2023-02-16T01:29:20.398Z,101279.22
2023-02-16T01:32:10.212Z,101270.50
2023-02-16T01:34:57.094Z,101256.50
2023-02-16T01:37:44.130Z,101265.22
2023-02-16T01:40:49.367Z,101244.22
2023-02-16T01:43:44.998Z,101226.75
2023-02-16T01:46:38.227Z,101243.28
2023-02-16T01:49:25.398Z,101246.81
2023-02-16T01:52:26.787Z,101230.16
2023-02-16T01:55:18.282Z,101229.25
2023-02-16T01:58:35.454Z,101224.91
2023-02-16T02:01:22.526Z,101214.38
2023-02-16T02:04:08.382Z,101215.28
2023-02-16T02:06:57.338Z,101207.41
2023-02-16T02:09:55.920Z,101199.53
2023-02-16T02:13:05.633Z,101195.25
2023-02-16T02:15:54.491Z,101211.78
2023-02-16T02:18:41.639Z,101208.25
2023-02-16T02:22:26.252Z,101200.38
2023-02-16T02:25:35.427Z,101202.13
2023-02-16T02:28:50.461Z,101198.66
2023-02-16T02:32:02.789Z,101197.78
2023-02-16T02:35:30.011Z,101196.03
2023-02-16T02:38:28.340Z,101176.81
2023-02-16T02:41:28.639Z,101192.50
2023-02-16T02:44:22.543Z,101191.66
2023-02-16T02:47:09.792Z,101179.44
2023-02-16T02:49:56.806Z,101183.78
2023-02-16T02:52:43.698Z,101174.97
2023-02-16T02:55:30.014Z,101172.38
2023-02-16T02:58:16.193Z,101143.66
2023-02-16T03:01:06.138Z,101149.72
2023-02-16T03:04:01.245Z,101114.09
2023-02-16T03:06:53.140Z,101119.25
2023-02-16T03:09:40.726Z,101133.06
2023-02-16T03:12:28.118Z,101134.69
2023-02-16T03:15:18.810Z,101135.56
2023-02-16T03:18:05.190Z,101129.44
2023-02-16T03:20:50.698Z,101122.41
2023-02-16T03:23:36.676Z,101111.91
2023-02-16T03:26:22.230Z,101116.28
2023-02-16T03:29:09.829Z,101097.03
2023-02-16T03:31:58.300Z,101099.66
2023-02-16T03:34:46.362Z,101090.84
2023-02-16T06:01:37.234Z,100897.13
2023-02-16T06:04:04.511Z,100888.38
2023-02-16T06:06:51.390Z,100892.75
2023-02-16T06:09:38.314Z,100879.59
2023-02-16T06:12:25.679Z,100869.03
2023-02-16T06:15:12.574Z,100862.00
2023-02-16T06:17:59.594Z,100867.19
2023-02-16T06:20:46.471Z,100854.97
2023-02-16T06:23:34.319Z,100858.44
2023-02-16T06:26:21.381Z,100848.75
2023-02-16T06:29:08.483Z,100841.72
2023-02-16T06:31:55.495Z,100848.72
2023-02-16T06:34:42.653Z,100838.19
2023-02-16T06:37:29.667Z,100832.03
2023-02-16T06:40:16.670Z,100825.84
2023-02-16T06:43:03.915Z,100832.81
2023-02-16T06:45:50.942Z,100814.47
2023-02-16T06:48:37.923Z,100829.28
2023-02-16T06:51:25.119Z,100821.38
2023-02-16T06:54:12.125Z,100831.84
2023-02-16T06:56:59.893Z,100830.00
2023-02-16T06:59:46.840Z,100820.38
2023-02-16T07:02:33.765Z,100811.56
2023-02-16T07:05:20.695Z,100810.69
2023-02-16T07:08:07.677Z,100816.78
2023-02-16T07:10:54.582Z,100793.34
2023-02-16T07:13:41.706Z,100806.25
2023-02-16T07:16:29.535Z,100800.06
2023-02-16T07:19:16.565Z,100795.69
2023-02-16T07:22:03.597Z,100755.84
2023-02-16T07:24:50.665Z,100789.56
2023-02-16T07:27:37.597Z,100795.69
2023-02-16T07:30:24.856Z,100794.81
2023-02-16T07:33:11.850Z,100790.44
2023-02-16T07:35:58.898Z,100803.56
2023-02-16T07:38:45.871Z,100804.41
2023-02-16T07:41:32.911Z,100796.53
2023-02-16T07:44:27.517Z,100806.13
2023-02-16T07:47:14.434Z,100800.88
2023-02-16T07:50:01.455Z,100790.31
2023-02-16T07:52:53.240Z,100777.22
2023-02-16T07:55:40.043Z,100771.94
2023-02-16T07:58:27.850Z,100772.75
2023-02-16T08:01:30.497Z,100771.03
2023-02-16T08:04:17.483Z,100764.03
2023-02-16T08:07:04.329Z,100757.84
2023-02-16T08:09:51.392Z,100752.59
2023-02-16T08:12:38.585Z,100749.03
2023-02-16T08:15:25.984Z,100740.31
2023-02-16T08:18:12.872Z,100736.72
2023-02-16T08:21:04.653Z,100733.19
2023-02-16T08:23:51.859Z,100722.72
2023-02-16T08:26:39.890Z,100717.50
2023-02-16T08:29:27.892Z,100718.25
2023-02-16T08:32:14.924Z,100727.00
2023-02-16T08:35:01.918Z,100718.22
2023-02-16T08:37:48.825Z,100722.56
2023-02-16T08:40:35.767Z,100716.56
2023-02-16T08:43:22.935Z,100712.06
2023-02-16T08:46:10.272Z,100708.69
2023-02-16T08:48:58.184Z,100702.44
2023-02-16T08:51:45.441Z,100707.78
2023-02-16T08:54:41.002Z,100716.50
2023-02-16T08:57:27.928Z,100698.16
2023-02-16T09:00:15.056Z,100697.31
2023-02-16T09:03:01.968Z,100701.72
2023-02-16T09:05:48.948Z,100691.19
2023-02-16T09:08:36.446Z,100692.06
2023-02-16T09:11:29.175Z,100692.16
2023-02-16T09:14:16.166Z,100686.00
2023-02-16T09:17:03.409Z,100686.97
2023-02-16T09:19:50.340Z,100664.63
2023-02-16T09:22:37.286Z,100693.22
2023-02-16T09:25:24.310Z,100656.88
2023-02-16T09:28:11.602Z,100656.00
2023-02-16T09:30:58.912Z,100687.16
2023-02-16T09:33:46.202Z,100686.28
2023-02-16T09:36:33.313Z,100685.44
2023-02-16T09:39:20.788Z,100689.91
2023-02-16T09:42:13.473Z,100687.31
2023-02-16T09:45:25.079Z,100692.53
2023-02-16T09:48:13.006Z,100671.97
2023-02-16T09:51:00.027Z,100703.09
2023-02-16T09:53:59.450Z,100696.09
2023-02-16T09:56:51.808Z,100693.44
2023-02-16T09:59:56.354Z,100696.09
2023-02-16T10:03:17.732Z,100682.94
2023-02-16T10:06:22.990Z,100688.13
2023-02-16T10:09:15.397Z,100692.50
2023-02-16T10:12:23.954Z,100685.50
2023-02-16T10:15:14.245Z,100687.19
2023-02-16T10:18:23.600Z,100680.22
2023-02-16T10:21:13.937Z,100689.75
2023-02-16T10:24:18.310Z,100693.22
2023-02-16T10:27:18.401Z,100684.41
2023-02-16T10:30:05.309Z,100682.66
2023-02-16T10:32:59.995Z,100688.75
2023-02-16T10:36:15.976Z,100692.22
2023-02-16T10:39:22.983Z,100671.38
2023-02-16T10:42:23.461Z,100668.69
2023-02-16T10:45:45.287Z,100674.63
2023-02-16T10:48:34.510Z,100674.53
2023-02-16T10:51:40.997Z,100687.66
2023-02-16T10:54:37.642Z,100687.72
2023-02-16T10:57:07.538Z,100691.13
2023-02-16T10:59:39.493Z,100678.03
2023-02-16T11:02:30.598Z,100680.56
2023-02-16T11:05:18.546Z,100670.00
2023-02-16T11:08:19.390Z,100658.81
2023-02-16T11:11:09.641Z,100645.69
2023-02-16T11:13:56.985Z,100654.19
2023-02-16T11:16:44.357Z,100660.22
2023-02-16T11:19:46.074Z,100656.69
2023-02-16T11:22:52.743Z,100609.16
2023-02-16T11:25:42.809Z,100647.88
2023-02-16T11:28:32.327Z,100644.28
2023-02-16T11:31:30.516Z,100648.63
2023-02-16T11:34:27.545Z,100643.38
2023-02-16T11:37:24.061Z,100651.16
2023-02-16T11:40:19.827Z,100637.09
2023-02-16T11:43:16.113Z,100546.69
2023-02-16T11:46:03.243Z,100647.53
2023-02-16T11:48:52.916Z,100644.06
2023-02-16T11:51:54.449Z,100578.38
2023-02-16T11:54:42.461Z,100640.47
2023-02-16T11:57:33.074Z,100643.06
2023-02-16T12:00:22.272Z,100644.78
2023-02-16T12:03:41.740Z,100650.00
2023-02-16T12:06:47.410Z,100645.59
2023-02-16T12:09:52.052Z,100605.88
2023-02-16T12:13:19.981Z,100642.94
2023-02-16T12:16:14.376Z,100640.22
2023-02-16T12:19:07.716Z,100635.78
2023-02-16T12:21:41.194Z,100634.03
2023-02-16T12:24:09.458Z,100632.28
2023-02-16T12:26:42.532Z,100618.22
2023-02-16T12:29:21.436Z,100607.69
2023-02-16T12:32:16.083Z,100600.66
2023-02-16T12:35:22.303Z,100573.44
2023-02-16T12:38:40.389Z,100576.94
2023-02-16T12:41:13.155Z,100585.63
2023-02-16T12:43:46.912Z,100590.00
2023-02-16T12:46:23.921Z,100596.06
2023-02-16T12:48:57.526Z,100596.06
2023-02-16T12:51:38.777Z,100597.81
2023-02-16T12:54:17.884Z,100609.13
2023-02-16T12:57:13.969Z,100602.97
2023-02-16T12:59:55.484Z,100589.81
2023-02-16T13:02:31.771Z,100590.66
2023-02-16T13:05:13.657Z,100594.13
2023-02-16T13:08:03.727Z,100598.50
2023-02-16T13:11:00.745Z,100578.50
2023-02-16T13:13:52.180Z,100571.72
2023-02-16T13:16:53.358Z,100592.31
2023-02-16T13:19:40.379Z,100554.38
2023-02-16T13:22:47.816Z,100588.78
2023-02-16T13:26:05.124Z,100588.78
2023-02-16T13:29:33.774Z,100589.59
2023-02-16T13:32:33.127Z,100591.34
2023-02-16T13:35:34.926Z,100577.31
2023-02-16T13:38:26.198Z,100573.16
2023-02-16T13:41:40.145Z,100581.84
2023-02-16T13:44:36.898Z,100577.50
2023-02-16T13:47:25.218Z,100524.13
2023-02-16T13:50:19.033Z,100600.06
2023-02-16T13:53:06.220Z,100557.81
2023-02-16T13:55:59.501Z,100600.94
2023-02-16T13:58:49.633Z,100594.78
2023-02-16T14:01:52.041Z,100594.78
2023-02-16T14:04:41.920Z,100595.59
2023-02-16T14:07:37.854Z,100585.06
2023-02-16T14:10:25.554Z,100578.97
2023-02-16T14:13:12.602Z,100580.63
2023-02-16T14:16:11.357Z,100571.06
2023-02-16T14:19:05.959Z,100569.19
2023-02-16T14:22:01.770Z,100569.97
2023-02-16T14:24:52.850Z,100579.66
2023-02-16T14:28:04.783Z,100581.38
2023-02-16T14:31:09.931Z,100583.09
2023-02-16T14:34:07.984Z,100568.16
2023-02-16T14:36:55.023Z,100551.50
2023-02-16T14:39:58.541Z,100564.63
2023-02-16T14:42:52.519Z,100561.09
2023-02-16T14:46:02.661Z,100529.09
2023-02-16T14:49:34.166Z,100569.00
2023-02-16T14:52:26.836Z,100572.47
2023-02-16T14:55:29.016Z,100579.53
2023-02-16T14:58:20.323Z,100567.25
2023-02-16T15:01:14.720Z,100571.63
2023-02-16T15:04:22.797Z,100574.25
2023-02-16T15:07:10.204Z,100569.00
2023-02-16T15:10:02.762Z,100575.38
2023-02-16T15:12:59.740Z,100585.69
2023-02-16T15:15:56.402Z,100574.59
2023-02-16T15:18:47.467Z,100592.81
2023-02-16T15:21:43.542Z,100591.00
2023-02-16T15:24:42.735Z,100579.06
2023-02-16T15:27:40.845Z,100601.50
2023-02-16T15:30:38.992Z,100595.41
2023-02-16T15:33:45.272Z,100594.53
2023-02-16T15:36:34.898Z,100583.38
2023-02-16T15:39:37.881Z,100597.34
2023-02-16T15:42:43.880Z,100616.53
2023-02-16T15:45:47.310Z,100618.28
2023-02-16T15:48:40.018Z,100613.88
2023-02-16T15:51:33.938Z,100606.91
2023-02-16T15:54:08.070Z,100600.84
2023-02-16T15:56:39.283Z,100599.06
2023-02-16T15:59:24.823Z,100577.44
2023-02-16T16:02:15.432Z,100593.00
2023-02-16T16:04:47.608Z,100584.25
2023-02-16T16:07:25.066Z,100573.94
2023-02-16T16:09:52.573Z,100579.03
2023-02-16T16:12:20.805Z,100571.31
2023-02-16T16:14:56.953Z,100583.47
2023-02-16T16:17:37.962Z,100541.91
2023-02-16T16:20:36.055Z,100566.03
2023-02-16T16:23:06.737Z,100564.28
2023-02-16T16:25:37.041Z,100552.00
2023-02-16T16:28:06.596Z,100506.41
2023-02-16T16:30:36.320Z,100546.75
2023-02-16T16:33:09.425Z,100557.31
2023-02-16T16:35:39.085Z,100558.25
2023-02-16T16:38:42.834Z,100548.03
2023-02-16T16:41:29.123Z,100562.81
2023-02-16T16:43:57.103Z,100522.19
2023-02-16T16:46:29.176Z,100549.16
2023-02-16T16:49:03.624Z,100571.59
2023-02-16T16:51:41.602Z,100562.91
2023-02-16T16:54:35.946Z,100572.56
2023-02-16T16:57:35.809Z,100536.31
2023-02-16T17:00:23.555Z,100563.91
2023-02-16T17:03:10.972Z,100556.91
2023-02-16T17:05:57.974Z,100546.75
2023-02-16T17:08:45.040Z,100515.72
2023-02-16T17:11:24.035Z,100562.31
2023-02-16T17:13:52.186Z,100563.22
2023-02-16T17:16:24.572Z,100559.72
2023-02-16T17:18:51.615Z,100567.59
2023-02-16T17:21:18.709Z,100564.13
2023-02-16T17:23:52.815Z,100559.75
2023-02-16T17:26:22.460Z,100553.66
2023-02-16T17:28:50.417Z,100551.03
2023-02-16T17:31:17.558Z,100553.69
2023-02-16T17:33:45.043Z,100552.78
2023-02-16T17:36:15.333Z,100561.63
2023-02-16T17:38:43.351Z,100566.03
2023-02-16T17:41:24.145Z,100548.53
2023-02-16T17:43:51.538Z,100551.16
2023-02-16T17:46:20.150Z,100531.63
2023-02-16T17:48:53.624Z,100561.78
2023-02-16T17:51:22.693Z,100568.78
2023-02-16T17:53:49.750Z,100552.13
2023-02-16T17:56:20.331Z,100552.13
2023-02-16T17:59:07.192Z,100536.88
2023-02-16T18:01:54.581Z,100535.25
2023-02-16T18:04:41.457Z,100511.16
2023-02-16T18:07:35.648Z,100561.91
2023-02-16T18:10:23.095Z,100583.88
2023-02-16T18:13:10.081Z,100585.72
2023-02-16T18:15:58.616Z,100585.72
2023-02-16T18:18:45.743Z,100547.75
2023-02-16T18:21:32.993Z,100568.31
2023-02-16T18:24:19.903Z,100563.19
2023-02-16T18:27:07.580Z,100582.38
2023-02-16T18:29:54.646Z,100578.88
2023-02-16T18:32:41.534Z,100572.75
2023-02-16T18:35:29.466Z,100557.88
2023-02-16T18:38:16.427Z,100552.66
2023-02-16T18:41:04.674Z,100553.53
2023-02-16T18:43:51.806Z,100548.28
2023-02-16T18:46:38.754Z,100548.50
2023-02-16T18:49:25.634Z,100551.00
2023-02-16T18:52:12.799Z,100561.69
2023-02-16T18:54:59.666Z,100572.91
2023-02-16T18:57:46.758Z,100575.56
2023-02-16T19:00:34.476Z,100574.75
2023-02-16T19:03:21.434Z,100580.88
2023-02-16T19:06:08.568Z,100568.66
2023-02-16T19:08:55.757Z,100571.31
2023-02-16T19:11:42.705Z,100562.63
2023-02-16T19:14:30.419Z,100564.38
2023-02-16T19:17:17.398Z,100555.78
2023-02-16T19:20:04.337Z,100536.72
2023-02-16T19:22:51.217Z,100557.44
2023-02-16T19:25:38.177Z,100559.22
2023-02-16T19:28:25.335Z,100545.28
2023-02-16T19:31:12.345Z,100547.91
2023-02-16T19:33:59.281Z,100525.25
2023-02-16T19:36:48.810Z,100541.91
2023-02-16T19:39:35.737Z,100540.28
2023-02-16T19:42:22.716Z,100548.16
2023-02-16T19:45:09.637Z,100537.72
2023-02-16T19:47:56.674Z,100536.97
2023-02-16T19:50:43.606Z,100543.91
2023-02-16T19:53:30.543Z,100545.75
2023-02-16T19:56:18.154Z,100501.69
2023-02-16T19:59:05.579Z,100546.69
2023-02-16T20:01:52.476Z,100541.53
2023-02-16T20:04:39.570Z,100537.22
2023-02-16T20:07:26.450Z,100534.66
2023-02-16T20:10:13.592Z,100543.44
2023-02-16T20:13:00.523Z,100527.91
2023-02-16T20:15:47.563Z,100541.84
2023-02-16T20:18:34.579Z,100542.84
2023-02-16T20:21:24.067Z,100555.97
2023-02-16T20:24:15.009Z,100555.16
2023-02-16T20:27:06.288Z,100549.06
2023-02-16T20:29:53.254Z,100544.72
2023-02-16T20:32:46.815Z,100537.78
2023-02-16T20:35:34.410Z,100536.03
2023-02-16T20:38:21.421Z,100530.88
2023-02-16T20:41:08.334Z,100500.53
2023-02-16T20:43:57.025Z,100517.00
2023-02-16T20:46:44.082Z,100523.09
2023-02-16T20:49:31.047Z,100517.91
2023-02-16T20:52:18.518Z,100523.22
2023-02-16T20:55:05.606Z,100510.22
2023-02-16T20:57:54.372Z,100499.00
2023-02-16T21:00:42.093Z,100507.63
2023-02-16T21:03:29.220Z,100496.25
2023-02-16T21:06:17.192Z,100494.63
2023-02-16T21:09:04.130Z,100478.03
2023-02-16T21:11:51.049Z,100482.41
2023-02-16T21:14:37.945Z,100478.94
2023-02-16T21:17:25.065Z,100477.22
2023-02-16T21:20:12.147Z,100476.38
2023-02-16T21:22:59.142Z,100466.00
2023-02-16T21:25:46.020Z,100475.63
2023-02-16T21:28:13.290Z,100493.13
2023-02-16T21:30:41.459Z,100491.38
2023-02-16T21:33:28.327Z,100492.34
2023-02-16T21:36:22.864Z,100482.88
2023-02-16T21:39:09.933Z,100480.16
2023-02-16T21:41:56.810Z,100493.38
2023-02-16T21:44:43.685Z,100488.16
2023-02-16T21:47:31.625Z,100489.94
2023-02-16T21:50:19.053Z,100484.72
2023-02-16T21:53:05.905Z,100466.59
2023-02-16T21:55:51.551Z,100476.09
2023-02-16T21:58:38.425Z,100476.16
2023-02-16T22:01:25.353Z,100480.59
2023-02-16T22:04:13.226Z,100452.28
2023-02-16T22:07:04.690Z,100487.63
2023-02-16T22:09:51.563Z,100478.91
2023-02-16T22:12:38.466Z,100481.63
2023-02-16T22:15:25.781Z,100449.66
2023-02-16T22:17:53.096Z,100474.75
2023-02-16T22:20:40.193Z,100473.84
2023-02-16T22:23:27.201Z,100479.97
2023-02-16T22:26:14.065Z,100475.63
2023-02-16T22:29:01.072Z,100467.94
2023-02-16T22:31:48.033Z,100463.59
2023-02-16T22:34:38.169Z,100465.28
2023-02-16T22:37:25.205Z,100465.31
2023-02-16T22:40:12.206Z,100466.22
2023-02-16T22:42:59.019Z,100463.63
2023-02-16T22:45:46.039Z,100456.00
2023-02-16T22:48:33.084Z,100463.72
2023-02-16T22:51:21.088Z,100461.97
2023-02-16T22:54:08.348Z,100416.31
2023-02-16T22:56:55.801Z,100458.56
2023-02-16T22:59:42.955Z,100405.97
2023-02-16T23:02:29.869Z,100457.75
2023-02-16T23:05:16.741Z,100469.13
2023-02-16T23:08:03.701Z,100465.66
2023-02-16T23:10:50.729Z,100458.69
2023-02-16T23:13:37.778Z,100462.22
2023-02-16T23:16:38.844Z,100472.69
2023-02-16T23:19:25.769Z,100444.06
2023-02-16T23:22:13.709Z,100460.50
2023-02-16T23:25:00.734Z,100464.03
2023-02-16T23:27:47.670Z,100453.59
2023-02-16T23:30:34.788Z,100462.31
2023-02-16T23:33:21.756Z,100460.63
2023-02-16T23:36:08.892Z,100450.22
2023-02-16T23:38:56.371Z,100433.84
2023-02-16T23:41:43.313Z,100444.97
2023-02-16T23:44:32.915Z,100443.28
2023-02-16T23:47:19.978Z,100451.13
2023-02-16T23:50:06.961Z,100444.31
2023-02-16T23:52:54.070Z,100456.44
2023-02-16T23:55:40.967Z,100450.34
2023-02-16T23:58:28.088Z,100451.28
